Time;durP1;ratioP1;P1;durP2;ratioP2;P2;SDS_P1;SDS_P2;PMS_P1;PMS_P2;Temp;Humidity;BMP_temperature;BMP_pressure;BME280_temperature;BME280_humidity;BME280_pressure;Samples;Min_cycle;Max_cycle;Signal;HPM_P1;HPM_P2
2022/01/18 00:00:07;;;;;;;1.60;1.50;;;;;;;3.04;87.52;95227.34;5096460;28;20202;-66
2022/01/18 00:02:34;;;;;;;2.00;1.57;;;;;;;3.02;88.40;95229.03;5096239;28;20776;-67
2022/01/18 00:05:01;;;;;;;1.80;1.70;;;;;;;2.99;87.86;95236.56;5098703;28;20201;-67
2022/01/18 00:07:29;;;;;;;1.90;1.80;;;;;;;2.98;87.92;95232.38;5099327;28;20204;-67
2022/01/18 00:09:56;;;;;;;2.30;2.20;;;;;;;3.03;87.88;95235.72;5100513;28;20285;-67
2022/01/18 00:12:54;;;;;;;2.10;1.90;;;;;;;3.02;87.00;95239.06;5097375;28;20208;-67
2022/01/18 00:15:38;;;;;;;1.90;1.80;;;;;;;3.00;86.13;95240.75;5096935;28;20275;-68
2022/01/18 00:18:13;;;;;;;1.97;1.87;;;;;;;3.06;85.40;95245.75;5099549;28;20200;-68
2022/01/18 00:20:56;;;;;;;2.30;2.10;;;;;;;3.02;86.01;95251.63;5099382;28;20311;-68
2022/01/18 00:23:25;;;;;;;2.30;2.20;;;;;;;2.94;86.50;95261.69;5100687;28;20239;-68
2022/01/18 00:25:55;;;;;;;2.20;2.10;;;;;;;3.04;85.76;95262.50;5098385;27;20748;-67
2022/01/18 00:28:22;;;;;;;2.77;2.57;;;;;;;2.92;85.59;95260.84;5100205;28;20205;-69
2022/01/18 00:33:50;;;;;;;2.63;2.43;;;;;;;3.19;84.79;95261.66;5096919;28;20206;-68
2022/01/18 00:36:35;;;;;;;2.50;2.30;;;;;;;3.05;84.09;95261.66;5093414;28;20205;-67
2022/01/18 00:39:05;;;;;;;4.30;2.63;;;;;;;3.04;84.23;95255.81;5094139;28;20216;-68
2022/01/18 00:41:32;;;;;;;3.13;2.80;;;;;;;3.19;82.48;95252.44;5097263;28;20835;-68
2022/01/18 00:43:58;;;;;;;4.00;3.67;;;;;;;3.18;82.47;95257.47;5096965;28;20896;-68
2022/01/18 00:46:25;;;;;;;3.93;3.60;;;;;;;3.05;82.01;95269.19;5097882;28;20316;-67
2022/01/18 00:48:55;;;;;;;3.60;3.00;;;;;;;2.95;81.48;95272.56;5096567;28;20232;-67
2022/01/18 00:51:23;;;;;;;4.50;3.33;;;;;;;2.95;81.47;95285.97;5099214;28;20261;-68
2022/01/18 00:53:50;;;;;;;2.90;2.70;;;;;;;2.98;81.37;95290.13;5099723;28;20277;-67
2022/01/18 00:56:23;;;;;;;3.13;2.93;;;;;;;3.04;82.03;95312.72;5098432;28;20325;-67
2022/01/18 00:58:52;;;;;;;2.87;2.67;;;;;;;3.04;81.80;95320.25;5099181;28;20211;-68
2022/01/18 01:01:23;;;;;;;3.23;3.00;;;;;;;3.03;81.48;95328.63;5098866;28;20225;-67
2022/01/18 01:03:50;;;;;;;2.50;2.30;;;;;;;3.10;82.17;95342.00;5098694;28;20261;-68
2022/01/18 01:06:17;;;;;;;3.03;2.70;;;;;;;3.08;82.94;95339.50;5099084;28;20224;-66
2022/01/18 01:08:44;;;;;;;3.33;3.13;;;;;;;3.01;83.99;95347.84;5099567;28;20193;-67
2022/01/18 01:11:12;;;;;;;3.23;3.03;;;;;;;2.97;85.80;95351.22;5099695;28;20242;-67
2022/01/18 01:13:44;;;;;;;3.50;3.20;;;;;;;2.89;87.09;95353.72;5099588;28;20317;-66
2022/01/18 01:16:31;;;;;;;3.50;3.23;;;;;;;2.84;88.43;95370.44;5099711;28;20205;-66
2022/01/18 01:19:16;;;;;;;3.93;3.60;;;;;;;2.77;90.27;95382.97;5099365;28;20197;-68
2022/01/18 01:33:23;;;;;;;1.50;1.40;;;;;;;1.85;96.16;95406.91;5099694;28;21665;-67
2022/01/18 01:36:10;;;;;;;1.70;1.60;;;;;;;1.69;96.95;95401.84;5099305;28;21067;-66
2022/01/18 01:44:18;;;;;;;2.07;1.97;;;;;;;1.89;97.58;95406.94;5099832;28;20235;-67
2022/01/18 01:46:46;;;;;;;2.40;2.20;;;;;;;1.77;97.54;95414.38;5098221;28;20287;-67
2022/01/18 01:49:15;;;;;;;2.28;2.17;;;;;;;1.69;98.15;95423.53;5096823;28;20201;-68
2022/01/18 01:51:41;;;;;;;2.67;2.47;;;;;;;1.59;99.07;95432.66;5099967;28;20201;-68
2022/01/18 01:54:11;;;;;;;3.70;2.67;;;;;;;1.67;98.16;95420.19;5099152;28;20297;-67
2022/01/18 01:56:38;;;;;;;3.27;3.03;;;;;;;1.67;97.10;95408.50;5099370;28;20233;-68
2022/01/18 01:59:05;;;;;;;2.95;2.75;;;;;;;1.61;95.61;95412.63;5099754;28;20672;-68
2022/01/18 02:01:39;;;;;;;2.80;2.60;;;;;;;1.75;92.63;95400.16;5098578;28;20671;-68
2022/01/18 02:04:08;;;;;;;2.57;2.37;;;;;;;1.61;90.74;95420.13;5096898;28;20228;-68
2022/01/18 02:06:34;;;;;;;3.83;1.93;;;;;;;1.55;86.94;95437.63;5098896;28;20232;-68
2022/01/18 02:09:02;;;;;;;1.80;1.70;;;;;;;1.39;85.64;95420.81;5099050;28;20701;-67
2022/01/18 02:11:29;;;;;;;1.50;1.40;;;;;;;1.47;82.78;95419.22;5099994;28;20229;-68
2022/01/18 02:13:56;;;;;;;1.50;1.40;;;;;;;1.44;80.97;95424.22;5098499;28;21026;-67
2022/01/18 02:21:57;;;;;;;1.40;1.13;;;;;;;1.47;74.37;95464.31;5087135;28;20765;-68
2022/01/18 02:24:26;;;;;;;1.30;1.30;;;;;;;1.25;73.32;95465.75;5080543;27;20619;-68
2022/01/18 02:26:53;;;;;;;1.50;1.40;;;;;;;1.39;72.72;95480.91;5082739;28;20201;-68
2022/01/18 02:29:20;;;;;;;1.13;1.10;;;;;;;1.39;71.79;95490.94;5088140;28;20256;-68
2022/01/18 02:31:47;;;;;;;1.37;1.27;;;;;;;1.20;73.02;95485.78;5087674;28;21322;-68
2022/01/18 02:34:17;;;;;;;1.23;1.23;;;;;;;1.07;72.64;95483.13;5087388;28;20762;-69
2022/01/18 02:36:44;;;;;;;1.53;1.43;;;;;;;1.00;72.46;95487.22;5097254;28;20236;-68
2022/01/18 02:39:14;;;;;;;5.27;1.13;;;;;;;1.01;71.18;95506.41;5100455;28;20285;-69
2022/01/18 02:41:41;;;;;;;1.43;1.33;;;;;;;1.00;70.80;95504.75;5098029;28;20251;-68
2022/01/18 02:44:10;;;;;;;0.90;0.90;;;;;;;0.97;70.01;95517.25;5096696;28;21402;-66
2022/01/18 02:46:38;;;;;;;1.17;1.10;;;;;;;0.96;70.15;95526.44;5098751;28;20201;-68
2022/01/18 02:49:06;;;;;;;2.30;1.40;;;;;;;0.79;69.49;95542.06;5097553;28;20201;-68
2022/01/18 02:51:34;;;;;;;1.13;1.10;;;;;;;0.76;69.07;95529.50;5099732;28;20201;-68
2022/01/18 02:54:03;;;;;;;1.70;1.07;;;;;;;0.89;68.80;95548.84;5095278;28;21063;-68
2022/01/18 02:56:34;;;;;;;2.47;1.10;;;;;;;0.68;67.52;95550.28;5098086;28;20221;-68
2022/01/18 02:59:13;;;;;;;1.03;1.03;;;;;;;0.62;68.25;95545.19;5099436;28;20604;-69
2022/01/18 03:04:23;;;;;;;1.10;1.00;;;;;;;0.53;68.10;95555.09;5098629;28;20358;-68
2022/01/18 03:06:50;;;;;;;1.57;1.30;;;;;;;0.56;67.43;95565.13;5097822;28;20262;-68
2022/01/18 03:09:18;;;;;;;2.37;1.10;;;;;;;0.46;67.47;95568.34;5100469;28;20255;-68
2022/01/18 03:11:46;;;;;;;1.60;1.40;;;;;;;0.43;67.25;95569.97;5095997;28;20313;-68
2022/01/18 03:14:13;;;;;;;1.63;1.50;;;;;;;0.47;68.42;95572.53;5096747;28;20251;-68
2022/01/18 03:16:40;;;;;;;1.20;1.20;;;;;;;0.26;67.58;95578.06;5094788;28;20253;-68
2022/01/18 03:19:07;;;;;;;2.30;1.30;;;;;;;0.31;67.17;95578.13;5090459;28;20831;-66
2022/01/18 03:21:34;;;;;;;1.57;1.30;;;;;;;0.36;67.40;95584.03;5094960;28;20202;-68
2022/01/18 03:24:13;;;;;;;2.53;1.40;;;;;;;0.22;67.48;95568.00;5096386;28;20229;-68
2022/01/18 03:29:23;;;;;;;1.50;1.40;;;;;;;0.18;67.00;95583.78;5096533;28;20608;-68
2022/01/18 03:31:51;;;;;;;1.53;1.43;;;;;;;0.26;66.85;95573.06;5100398;28;20747;-68
2022/01/18 03:34:18;;;;;;;1.07;1.07;;;;;;;0.13;67.53;95568.72;5098910;28;20285;-67
2022/01/18 03:36:46;;;;;;;2.47;1.70;;;;;;;0.26;67.92;95572.22;5099901;28;20205;-68
2022/01/18 03:39:13;;;;;;;1.33;1.23;;;;;;;0.18;67.24;95576.28;5100737;27;21061;-67
2022/01/18 03:41:40;;;;;;;1.73;1.50;;;;;;;0.21;66.59;95581.31;5099584;28;20730;-68
2022/01/18 03:44:07;;;;;;;1.50;1.40;;;;;;;0.15;66.90;95567.06;5098060;28;20225;-69
2022/01/18 03:46:37;;;;;;;1.37;1.23;;;;;;;0.15;67.83;95571.22;5098996;28;20621;-67
2022/01/18 03:49:05;;;;;;;3.97;1.40;;;;;;;0.25;65.68;95575.53;5100133;28;20216;-68
2022/01/18 03:51:32;;;;;;;2.53;1.20;;;;;;;0.10;66.06;95587.81;5097035;28;20297;-66
2022/01/18 03:53:59;;;;;;;1.40;1.30;;;;;;;0.14;66.09;95592.88;5095054;28;20638;-67
2022/01/18 03:56:26;;;;;;;4.70;1.73;;;;;;;0.00;66.51;95602.66;5097012;28;20205;-68
2022/01/18 03:58:53;;;;;;;1.10;1.10;;;;;;;0.07;66.94;95597.75;5098142;28;21189;-67
2022/01/18 04:01:20;;;;;;;1.53;1.43;;;;;;;0.14;66.09;95589.53;5097628;28;20287;-68
2022/01/18 04:03:49;;;;;;;1.30;1.20;;;;;;;-0.11;66.56;95584.19;5100051;28;20264;-68
2022/01/18 04:06:16;;;;;;;2.40;1.50;;;;;;;0.02;66.30;95605.19;5099526;28;20237;-68
2022/01/18 04:08:42;;;;;;;1.70;1.60;;;;;;;-0.04;67.88;95615.94;5096045;28;20201;-68
2022/01/18 04:11:09;;;;;;;1.57;1.47;;;;;;;0.11;66.51;95631.97;5096025;28;20201;-68
2022/01/18 04:13:36;;;;;;;1.77;1.67;;;;;;;0.18;66.48;95647.09;5095413;28;20212;-67
2022/01/18 04:16:03;;;;;;;2.13;1.50;;;;;;;-0.01;66.72;95655.13;5099219;28;20270;-68
2022/01/18 04:18:47;;;;;;;2.30;1.10;;;;;;;0.14;65.78;95669.53;5096796;28;20201;-68
2022/01/18 04:26:56;;;;;;;1.53;1.43;;;;;;;0.02;66.69;95684.28;5097477;28;20651;-67
2022/01/18 04:29:24;;;;;;;4.43;1.57;;;;;;;-0.03;66.28;95697.56;5096772;28;20359;-68
2022/01/18 04:31:51;;;;;;;1.63;1.53;;;;;;;0.08;65.84;95701.91;5098135;28;20254;-68
2022/01/18 04:34:17;;;;;;;1.80;1.50;;;;;;;0.10;65.84;95707.75;5098438;28;20205;-67
2022/01/18 04:36:47;;;;;;;2.00;1.80;;;;;;;-0.05;65.79;95709.19;5098485;28;20200;-69
2022/01/18 04:39:15;;;;;;;1.63;1.53;;;;;;;-0.16;66.73;95719.81;5099415;28;20204;-68
2022/01/18 04:41:41;;;;;;;1.83;1.73;;;;;;;-0.22;66.50;95714.69;5095908;27;20211;-68
2022/01/18 04:49:42;;;;;;;1.97;1.70;;;;;;;-0.36;67.25;95741.91;5094741;28;20261;-69
2022/01/18 04:52:12;;;;;;;3.87;2.00;;;;;;;0.02;65.51;95754.25;5099310;28;20240;-70
2022/01/18 04:54:42;;;;;;;1.53;1.43;;;;;;;-0.26;66.52;95758.78;5098533;28;20292;-69
2022/01/18 04:59:54;;;;;;;4.37;1.80;;;;;;;-0.15;66.85;95759.81;5096327;28;20208;-68
2022/01/18 05:02:20;;;;;;;3.03;2.33;;;;;;;-0.34;67.44;95755.28;5095241;28;20287;-67
2022/01/18 05:04:47;;;;;;;1.70;1.60;;;;;;;-0.26;67.12;95762.94;5094079;28;20229;-68
2022/01/18 05:07:17;;;;;;;1.83;1.73;;;;;;;-0.40;67.76;95765.16;5099647;28;20305;-69
2022/01/18 05:09:46;;;;;;;1.50;1.40;;;;;;;-0.20;67.01;95766.38;5093904;28;20248;-69
2022/01/18 05:12:19;;;;;;;1.97;1.60;;;;;;;-0.39;67.25;95776.81;5096099;28;20205;-70
2022/01/18 05:14:47;;;;;;;20.90;9.83;;;;;;;-0.40;67.03;95785.13;5095456;28;21014;-69
2022/01/18 05:17:33;;;;;;;2.40;2.10;;;;;;;-0.44;67.46;95786.72;5094599;28;20243;-70
2022/01/18 05:20:03;;;;;;;3.47;2.43;;;;;;;-0.33;68.05;95804.41;5097750;28;20724;-69
2022/01/18 05:25:16;;;;;;;2.73;2.20;;;;;;;-0.54;68.05;95806.47;5097469;28;20583;-68
2022/01/18 05:27:43;;;;;;;1.67;1.57;;;;;;;-0.51;68.34;95816.53;5096313;28;20212;-69
2022/01/18 05:30:11;;;;;;;2.37;2.17;;;;;;;-0.40;68.57;95830.06;5095122;28;20318;-68
2022/01/18 05:32:37;;;;;;;1.90;1.80;;;;;;;-0.14;66.81;95835.59;5097786;28;20623;-68
2022/01/18 05:35:05;;;;;;;2.00;1.80;;;;;;;-0.23;66.55;95842.88;5098617;28;20980;-68
2022/01/18 05:37:33;;;;;;;4.23;2.30;;;;;;;-0.27;67.47;95841.16;5097043;28;20662;-69
2022/01/18 05:40:00;;;;;;;1.97;1.73;;;;;;;-0.52;67.76;95835.66;5096888;28;20267;-67
2022/01/18 05:42:26;;;;;;;4.20;3.10;;;;;;;-0.55;68.34;95839.75;5098486;28;20517;-70
2022/01/18 05:44:53;;;;;;;3.57;2.73;;;;;;;-0.58;69.56;95834.69;5096473;28;21695;-68
2022/01/18 05:47:20;;;;;;;2.00;1.90;;;;;;;-0.41;68.75;95844.22;5092878;28;20233;-70
2022/01/18 05:49:47;;;;;;;10.53;6.50;;;;;;;-0.32;68.88;95855.22;5098420;28;20209;-68
2022/01/18 05:52:14;;;;;;;2.80;2.40;;;;;;;-0.35;68.52;95851.84;5097751;28;20613;-69
2022/01/18 05:54:42;;;;;;;2.70;2.50;;;;;;;-0.37;69.43;95860.94;5097159;28;20220;-68
2022/01/18 05:57:09;;;;;;;2.50;2.10;;;;;;;-0.24;68.87;95866.19;5096951;28;20209;-68
2022/01/18 05:59:38;;;;;;;8.47;1.73;;;;;;;-0.25;68.61;95862.88;5097425;28;20205;-69
2022/01/18 06:02:16;;;;;;;3.80;2.13;;;;;;;-0.28;68.48;95872.78;5099610;28;20228;-68
2022/01/18 06:07:30;;;;;;;5.27;3.27;;;;;;;0.32;67.44;95884.78;5067223;28;21125;-68
2022/01/18 06:09:58;;;;;;;3.30;2.13;;;;;;;1.26;65.23;95891.41;5099672;28;21247;-69
2022/01/18 06:12:26;;;;;;;1.63;1.53;;;;;;;2.54;61.55;95893.09;5100039;28;20273;-68
2022/01/18 06:14:53;;;;;;;2.20;2.00;;;;;;;3.38;57.35;95887.16;5097943;28;20604;-68
2022/01/18 06:17:19;;;;;;;1.70;1.60;;;;;;;4.60;56.29;95892.78;5097342;28;20313;-68
2022/01/18 06:19:46;;;;;;;2.03;1.93;;;;;;;5.08;52.18;95896.22;5100423;28;20221;-68
2022/01/18 06:22:13;;;;;;;1.50;1.40;;;;;;;4.99;51.12;95901.25;5097754;28;20317;-69
2022/01/18 06:24:40;;;;;;;1.87;1.77;;;;;;;5.71;50.33;95900.41;5100177;28;20284;-68
2022/01/18 06:27:09;;;;;;;2.47;1.55;;;;;;;6.52;48.13;95917.88;5100456;28;20313;-68
2022/01/18 06:29:36;;;;;;;2.35;1.63;;;;;;;6.68;47.76;95909.38;5097820;28;20224;-68
2022/01/18 06:32:03;;;;;;;3.57;1.80;;;;;;;7.08;46.99;95904.94;5101769;28;20309;-69
2022/01/18 06:34:30;;;;;;;2.08;1.98;;;;;;;7.71;45.11;95922.16;5098212;28;20716;-67
2022/01/18 06:36:57;;;;;;;2.40;1.85;;;;;;;7.51;45.32;95925.69;5100870;28;20201;-68
2022/01/18 06:39:24;;;;;;;2.05;1.80;;;;;;;8.04;45.41;95926.91;5100949;28;20636;-69
2022/01/18 06:41:50;;;;;;;2.67;2.25;;;;;;;7.29;45.56;95916.59;5099315;28;20196;-66
2022/01/18 06:44:19;;;;;;;4.40;2.05;;;;;;;6.00;48.59;95915.53;5098866;28;20225;-69
2022/01/18 06:46:45;;;;;;;2.22;2.03;;;;;;;6.44;48.33;95914.53;5097240;28;21175;-68
2022/01/18 06:49:12;;;;;;;2.38;2.15;;;;;;;7.41;44.99;95903.88;5096872;28;20205;-68
2022/01/18 06:51:39;;;;;;;1.50;1.40;;;;;;;8.03;43.72;95889.78;5098939;28;20566;-67
2022/01/18 06:54:12;;;;;;;4.00;2.10;;;;;;;7.92;42.07;95905.97;5100729;28;20656;-68
2022/01/18 06:56:43;;;;;;;2.60;1.70;;;;;;;7.02;44.06;95914.25;5101035;28;20209;-68
2022/01/18 06:59:10;;;;;;;1.77;1.67;;;;;;;5.98;48.17;95918.88;5100580;28;20298;-68
2022/01/18 07:01:38;;;;;;;2.07;1.97;;;;;;;5.14;49.67;95936.56;5097013;28;20200;-67
2022/01/18 07:04:05;;;;;;;1.60;1.50;;;;;;;5.13;50.68;95932.34;5100117;28;20236;-69
2022/01/18 07:06:32;;;;;;;2.93;1.90;;;;;;;6.43;47.00;95925.50;5096798;28;21066;-69
2022/01/18 07:08:59;;;;;;;2.75;2.05;;;;;;;6.26;48.02;95932.28;5098117;28;20217;-68
2022/01/18 07:11:26;;;;;;;3.42;2.33;;;;;;;5.70;49.55;95954.19;5096851;28;20198;-69
2022/01/18 07:13:53;;;;;;;2.60;1.53;;;;;;;6.24;48.74;95954.16;5099240;28;20193;-68
2022/01/18 07:16:19;;;;;;;4.13;2.10;;;;;;;7.20;46.74;95949.50;5100590;28;20228;-68
2022/01/18 07:18:48;;;;;;;2.87;2.07;;;;;;;7.25;45.81;95960.44;5099098;28;20687;-68
2022/01/18 07:21:14;;;;;;;5.70;2.80;;;;;;;6.54;47.24;95966.69;5101016;28;20400;-69
2022/01/18 07:23:41;;;;;;;5.95;2.78;;;;;;;6.42;47.87;95957.50;5095092;28;20656;-68
2022/01/18 07:26:08;;;;;;;1.90;1.80;;;;;;;6.43;47.61;95986.09;5096494;28;20286;-68
2022/01/18 07:28:34;;;;;;;5.07;1.95;;;;;;;5.69;49.11;95989.53;5099479;28;20285;-67
2022/01/18 07:31:01;;;;;;;4.13;1.63;;;;;;;7.04;45.95;95988.38;5098808;28;20256;-68
2022/01/18 07:33:28;;;;;;;4.82;1.98;;;;;;;8.28;43.62;95980.69;5100301;28;20201;-69
2022/01/18 07:35:56;;;;;;;1.63;1.52;;;;;;;9.10;41.59;95979.75;5100110;28;20232;-68
2022/01/18 07:38:23;;;;;;;6.93;2.17;;;;;;;9.20;41.13;95981.31;5095536;28;20212;-69
2022/01/18 07:40:53;;;;;;;2.53;1.92;;;;;;;10.34;39.20;95976.16;5095995;28;20752;-68
2022/01/18 07:43:21;;;;;;;1.77;1.67;;;;;;;10.49;38.32;95956.38;5098162;28;20236;-67
2022/01/18 07:45:50;;;;;;;5.13;1.77;;;;;;;10.83;38.34;95956.56;5099189;28;20229;-67
2022/01/18 07:48:21;;;;;;;1.95;1.80;;;;;;;10.10;38.11;95963.00;5098793;28;20293;-69
2022/01/18 07:50:48;;;;;;;2.22;1.35;;;;;;;8.55;41.33;95975.34;5097574;28;20197;-68
2022/01/18 07:53:16;;;;;;;2.60;1.63;;;;;;;8.70;42.54;95970.09;5100108;28;20205;-67
2022/01/18 07:55:42;;;;;;;1.90;1.80;;;;;;;8.39;41.56;95978.94;5094610;28;20266;-68
2022/01/18 07:58:09;;;;;;;3.42;1.70;;;;;;;7.40;44.68;95983.13;5100417;28;20285;-69
2022/01/18 08:00:36;;;;;;;1.90;1.73;;;;;;;6.56;46.83;95975.09;5098303;28;20646;-68
2022/01/18 08:03:03;;;;;;;4.13;2.35;;;;;;;6.27;48.33;95999.59;5099591;28;20201;-68
2022/01/18 08:05:30;;;;;;;2.83;2.17;;;;;;;6.19;47.93;95994.53;5098384;28;20229;-67
2022/01/18 08:07:57;;;;;;;1.60;1.40;;;;;;;6.65;47.34;96000.34;5098270;28;20237;-70
2022/01/18 08:10:30;;;;;;;2.10;2.00;;;;;;;8.10;45.12;95995.22;5097248;28;20285;-67
2022/01/18 08:12:57;;;;;;;1.50;1.40;;;;;;;9.03;41.67;96006.06;5095729;28;20691;-68
2022/01/18 08:15:25;;;;;;;3.42;2.00;;;;;;;9.73;39.61;96002.53;5099253;28;20267;-68
2022/01/18 08:17:54;;;;;;;3.00;2.28;;;;;;;10.62;38.36;95997.66;5099170;28;20209;-68
2022/01/18 08:20:21;;;;;;;2.75;2.05;;;;;;;11.17;37.09;96009.25;5099155;28;20329;-67
2022/01/18 08:22:48;;;;;;;2.28;1.85;;;;;;;11.58;36.47;95998.22;5095847;28;20201;-69
2022/01/18 08:25:17;;;;;;;4.20;2.05;;;;;;;11.26;36.72;95988.72;5097551;28;20320;-70
2022/01/18 08:27:46;;;;;;;4.18;2.10;;;;;;;11.98;35.32;96003.22;5099218;28;20221;-68
2022/01/18 08:30:16;;;;;;;1.80;1.40;;;;;;;11.99;34.93;95989.63;5098815;28;20232;-69
2022/01/18 08:32:44;;;;;;;2.83;1.95;;;;;;;11.44;35.04;96000.22;5095112;28;20197;-70
2022/01/18 08:35:10;;;;;;;1.70;1.60;;;;;;;11.34;35.34;96014.03;5098128;28;20230;-67
2022/01/18 08:37:37;;;;;;;1.55;1.45;;;;;;;12.52;34.66;96015.47;5098655;28;20193;-67
2022/01/18 08:40:04;;;;;;;3.72;2.03;;;;;;;12.59;32.97;96014.44;5099233;27;20746;-68
2022/01/18 08:42:31;;;;;;;3.33;2.95;;;;;;;11.47;34.35;96010.31;5095793;28;20383;-68
2022/01/18 08:44:59;;;;;;;2.85;2.65;;;;;;;10.78;36.08;96019.38;5097289;28;20260;-68
2022/01/18 08:47:27;;;;;;;2.97;2.35;;;;;;;11.65;34.03;96014.16;5096424;28;20285;-68
2022/01/18 08:49:54;;;;;;;1.85;1.75;;;;;;;12.36;33.08;96006.56;5097361;28;20209;-67
2022/01/18 08:52:21;;;;;;;2.20;1.98;;;;;;;12.40;32.15;96003.03;5097429;28;20204;-68
2022/01/18 08:54:48;;;;;;;7.85;1.60;;;;;;;11.37;34.99;96022.44;5098601;28;20225;-66
2022/01/18 08:57:16;;;;;;;1.85;1.60;;;;;;;10.97;34.84;96014.75;5098106;28;20675;-69
2022/01/18 08:59:44;;;;;;;1.60;1.50;;;;;;;9.38;37.49;96039.41;5096306;28;20276;-69
2022/01/18 09:02:13;;;;;;;2.80;2.10;;;;;;;6.91;42.78;96029.72;5092542;28;20653;-69
2022/01/18 09:04:40;;;;;;;6.32;1.70;;;;;;;6.89;44.32;96049.09;5094090;28;20287;-68
2022/01/18 09:07:11;;;;;;;1.88;1.77;;;;;;;7.59;42.19;96038.63;5097799;28;20232;-67
2022/01/18 09:09:40;;;;;;;1.60;1.50;;;;;;;8.04;43.11;96047.56;5097960;28;20229;-69
2022/01/18 09:12:08;;;;;;;5.32;3.67;;;;;;;8.39;40.74;96042.25;5095878;28;20209;-69
2022/01/18 09:14:35;;;;;;;7.57;2.42;;;;;;;9.39;38.57;96046.16;5094488;28;20273;-67
2022/01/18 09:17:02;;;;;;;3.90;1.80;;;;;;;8.24;40.35;96039.81;5097277;28;20216;-68
2022/01/18 09:19:30;;;;;;;1.80;1.50;;;;;;;7.76;41.46;96046.94;5096741;28;20349;-68
2022/01/18 09:21:59;;;;;;;2.22;2.03;;;;;;;6.78;43.98;96062.59;5095902;28;20193;-70
2022/01/18 09:24:26;;;;;;;2.33;2.13;;;;;;;5.56;47.48;96076.09;5096734;28;20810;-69
2022/01/18 09:26:53;;;;;;;1.63;1.52;;;;;;;5.01;48.15;96071.72;5096011;28;20246;-68
2022/01/18 09:29:20;;;;;;;3.17;1.98;;;;;;;4.42;50.19;96063.88;5094554;28;20233;-68
2022/01/18 09:31:48;;;;;;;2.22;2.03;;;;;;;4.65;49.95;96057.28;5095513;28;20672;-69
2022/01/18 09:34:15;;;;;;;2.77;2.00;;;;;;;5.28;49.14;96055.00;5095264;28;20205;-69
2022/01/18 09:36:43;;;;;;;2.77;2.67;;;;;;;6.18;47.45;96045.91;5096186;28;20224;-69
2022/01/18 09:39:10;;;;;;;1.88;1.77;;;;;;;6.62;46.55;96048.34;5099179;27;20196;-68
2022/01/18 09:41:40;;;;;;;3.08;2.67;;;;;;;6.30;46.01;96030.72;5102401;28;20750;-68
2022/01/18 09:44:07;;;;;;;2.00;1.90;;;;;;;6.46;46.78;96039.94;5101453;28;20197;-69
2022/01/18 09:46:34;;;;;;;8.95;3.78;;;;;;;6.41;46.91;96030.72;5102667;28;20236;-67
2022/01/18 09:49:01;;;;;;;2.28;2.08;;;;;;;6.22;46.93;96034.09;5098624;28;20208;-68
2022/01/18 09:51:29;;;;;;;3.37;2.10;;;;;;;5.68;48.20;96031.56;5101747;28;20746;-68
2022/01/18 09:53:57;;;;;;;2.63;2.40;;;;;;;5.46;48.52;96025.63;5102413;28;20195;-68
2022/01/18 09:56:25;;;;;;;3.00;2.33;;;;;;;5.39;49.16;96026.47;5096275;28;20201;-68
2022/01/18 09:58:52;;;;;;;2.53;2.33;;;;;;;5.46;48.55;96028.16;5100175;28;20276;-68
2022/01/18 10:01:20;;;;;;;5.50;2.40;;;;;;;5.27;49.98;96023.06;5097871;28;20220;-71
2022/01/18 10:03:47;;;;;;;2.42;2.22;;;;;;;4.93;50.12;96032.25;5099413;28;20197;-69
2022/01/18 10:06:19;;;;;;;4.77;1.60;;;;;;;4.76;50.60;96024.59;5101495;28;20872;-71
2022/01/18 10:08:49;;;;;;;5.93;2.27;;;;;;;4.78;51.26;96018.72;5098455;28;20201;-68
2022/01/18 10:11:20;;;;;;;3.28;2.13;;;;;;;4.32;51.78;95997.53;5100024;28;20561;-69
2022/01/18 10:13:49;;;;;;;2.67;2.10;;;;;;;4.30;52.40;96029.41;5101950;28;20197;-68
2022/01/18 10:16:20;;;;;;;6.35;4.10;;;;;;;4.63;52.02;96005.25;5096730;28;20300;-69
2022/01/18 10:18:49;;;;;;;3.08;2.83;;;;;;;4.78;51.38;96008.66;5101544;28;20208;-68
2022/01/18 10:21:28;;;;;;;3.50;1.83;;;;;;;4.79;50.95;96001.94;5101126;28;20578;-70
2022/01/18 10:24:11;;;;;;;2.75;2.10;;;;;;;4.74;50.43;96001.91;5099081;28;20205;-68
2022/01/18 10:26:42;;;;;;;3.17;1.90;;;;;;;4.70;50.31;96000.22;5098876;28;20231;-69
2022/01/18 10:29:09;;;;;;;1.60;1.50;;;;;;;4.39;50.67;96014.38;5098040;28;21667;-69
2022/01/18 10:31:42;;;;;;;4.25;2.25;;;;;;;4.15;51.69;95993.25;5100285;28;20188;-69
2022/01/18 10:34:23;;;;;;;2.13;2.00;;;;;;;4.26;51.43;96022.66;5099935;28;20225;-68
2022/01/18 10:36:59;;;;;;;5.30;2.40;;;;;;;4.50;51.06;96016.91;5098871;28;20201;-69
2022/01/18 10:39:28;;;;;;;2.67;1.93;;;;;;;4.43;50.84;96015.22;5099510;28;20237;-68
2022/01/18 10:41:56;;;;;;;3.83;2.37;;;;;;;4.32;51.62;95996.69;5097314;28;20312;-69
2022/01/18 10:44:24;;;;;;;4.47;2.33;;;;;;;4.40;51.49;96023.59;5100533;28;20201;-69
2022/01/18 10:46:55;;;;;;;2.38;1.70;;;;;;;4.34;52.55;96017.69;5100410;28;20233;-68
2022/01/18 10:49:32;;;;;;;10.35;2.15;;;;;;;4.25;51.57;96005.03;5099232;28;20232;-70
2022/01/18 10:52:02;;;;;;;3.80;1.98;;;;;;;4.15;51.37;96034.34;5099192;28;20274;-68
2022/01/18 10:54:43;;;;;;;2.08;1.98;;;;;;;4.12;51.21;96038.50;5100489;28;20208;-68
2022/01/18 10:57:13;;;;;;;2.63;1.97;;;;;;;4.01;52.21;96039.25;5100534;28;20794;-70
2022/01/18 10:59:41;;;;;;;4.63;2.47;;;;;;;4.06;51.16;96035.13;5098305;28;20262;-68
2022/01/18 11:02:13;;;;;;;3.90;2.37;;;;;;;3.79;51.79;96031.53;5096876;28;20205;-68
2022/01/18 11:04:42;;;;;;;2.92;2.70;;;;;;;3.62;52.80;96023.88;5094636;28;20208;-68
2022/01/18 11:07:09;;;;;;;2.05;1.80;;;;;;;3.87;53.19;96024.91;5101273;28;20232;-69
2022/01/18 11:09:36;;;;;;;3.72;2.10;;;;;;;4.06;51.84;96032.59;5097150;28;20224;-69
2022/01/18 11:12:04;;;;;;;5.20;2.15;;;;;;;4.23;51.29;96031.84;5100508;28;20228;-69
2022/01/18 11:14:36;;;;;;;1.83;1.70;;;;;;;4.06;52.17;96024.22;5095343;28;20193;-69
2022/01/18 11:17:04;;;;;;;3.88;2.22;;;;;;;4.27;52.82;96033.56;5090541;28;20668;-69
2022/01/18 11:19:34;;;;;;;2.00;1.83;;;;;;;4.44;50.92;96017.75;5090201;28;20595;-67
2022/01/18 11:22:04;;;;;;;4.35;1.90;;;;;;;4.45;50.67;96019.41;5090824;28;20229;-67
2022/01/18 11:24:31;;;;;;;3.40;2.30;;;;;;;4.51;50.73;96027.81;5090092;28;20194;-69
2022/01/18 11:26:59;;;;;;;2.15;1.98;;;;;;;4.32;50.09;96026.88;5089644;28;20282;-68
2022/01/18 11:29:27;;;;;;;3.00;2.10;;;;;;;4.24;49.99;96006.72;5088762;28;20382;-69
2022/01/18 11:31:56;;;;;;;3.58;2.05;;;;;;;4.37;50.28;96037.84;5091757;28;20246;-68
2022/01/18 11:34:33;;;;;;;2.10;2.00;;;;;;;4.37;50.23;96030.28;5091984;28;20190;-68
2022/01/18 11:37:09;;;;;;;3.03;2.83;;;;;;;4.02;50.46;96038.44;5092731;28;20197;-69
2022/01/18 11:39:36;;;;;;;3.57;1.50;;;;;;;4.07;48.39;96019.19;5091726;28;20259;-68
2022/01/18 11:42:08;;;;;;;2.00;1.83;;;;;;;3.85;48.63;96040.00;5092588;28;20604;-69
2022/01/18 11:44:36;;;;;;;1.55;1.48;;;;;;;3.76;49.02;96034.88;5091320;28;20668;-70
2022/01/18 11:47:06;;;;;;;1.80;1.70;;;;;;;3.61;49.95;96034.75;5090148;28;20598;-70
2022/01/18 11:49:34;;;;;;;2.57;2.23;;;;;;;3.69;49.19;96034.00;5088731;28;20271;-69
2022/01/18 11:52:04;;;;;;;2.50;1.53;;;;;;;3.82;49.24;96039.13;5089318;28;20201;-70
2022/01/18 11:54:41;;;;;;;3.10;1.98;;;;;;;3.70;49.60;96034.84;5091565;28;20667;-69
2022/01/18 11:57:34;;;;;;;3.80;2.05;;;;;;;3.65;48.99;96039.81;5091814;28;20202;-69
2022/01/18 12:00:22;;;;;;;5.70;1.97;;;;;;;3.59;49.84;96036.41;5090987;28;20266;-69
2022/01/18 12:02:54;;;;;;;5.30;1.80;;;;;;;3.78;49.21;96038.25;5091939;28;20284;-69
2022/01/18 12:05:21;;;;;;;3.13;1.90;;;;;;;3.76;49.32;96014.75;5092070;28;20198;-69
2022/01/18 12:07:59;;;;;;;2.23;1.40;;;;;;;3.52;49.83;96034.66;5092088;28;20656;-69
2022/01/18 12:10:47;;;;;;;2.43;1.70;;;;;;;3.47;49.28;96027.06;5092115;28;20668;-69
2022/01/18 12:13:40;;;;;;;2.70;2.27;;;;;;;3.26;49.96;96042.78;5092053;28;20263;-69
2022/01/18 12:16:17;;;;;;;2.50;2.30;;;;;;;3.16;51.25;96030.97;5092294;28;20733;-69
2022/01/18 12:18:54;;;;;;;2.40;1.67;;;;;;;2.86;50.85;96013.91;5091903;28;20198;-69
2022/01/18 12:21:26;;;;;;;4.53;2.33;;;;;;;3.09;50.13;96009.13;5091847;28;20209;-70
2022/01/18 12:23:54;;;;;;;5.63;2.87;;;;;;;2.85;50.23;96016.41;5092208;28;20201;-68
2022/01/18 12:26:34;;;;;;;3.57;1.80;;;;;;;2.94;49.99;96009.81;5091890;28;20278;-68
2022/01/18 12:32:28;;;;;;;2.13;1.63;;;;;;;2.89;50.96;96015.63;5091868;28;20197;-68
2022/01/18 12:35:16;;;;;;;1.70;1.50;;;;;;;2.90;50.96;96017.31;5091630;28;20585;-69
2022/01/18 12:37:48;;;;;;;2.10;2.00;;;;;;;2.92;52.45;96018.16;5091281;28;20255;-74
2022/01/18 12:40:32;;;;;;;2.85;1.83;;;;;;;2.96;51.15;96017.38;5091135;28;20182;-69
2022/01/18 12:45:55;;;;;;;5.63;1.70;;;;;;;3.10;51.98;96023.38;5091467;28;20234;-70